createdAt,value
2022-09-07T00:00:52.327Z,98035.03
2022-09-07T00:03:20.334Z,98039.66
2022-09-07T00:05:50.462Z,98036.69
2022-09-07T00:08:20.546Z,98032.06
2022-09-07T00:11:00.219Z,98032.34
2022-09-07T00:13:32.189Z,98037.97
2022-09-07T00:15:59.525Z,98040.06
2022-09-07T00:18:26.595Z,98037.22
2022-09-07T00:21:06.295Z,98035.66
2022-09-07T00:23:35.225Z,98028.59
2022-09-07T00:26:20.424Z,98028.94
2022-09-07T00:28:48.638Z,98023.53
2022-09-07T00:31:23.137Z,98016.03
2022-09-07T00:33:52.557Z,98011.91
2022-09-07T00:36:21.873Z,98005.09
2022-09-07T00:38:49.694Z,98002.41
2022-09-07T00:41:18.295Z,97995.00
2022-09-07T00:43:50.561Z,97984.19
2022-09-07T00:46:20.464Z,97988.47
2022-09-07T00:49:19.369Z,97982.09
2022-09-07T00:51:55.513Z,97971.19
2022-09-07T00:54:38.043Z,97973.03
2022-09-07T00:57:05.682Z,97960.41
2022-09-07T00:59:42.684Z,97959.50
2022-09-07T01:02:10.020Z,97958.84
2022-09-07T01:04:37.961Z,97957.91
2022-09-07T01:07:05.886Z,97951.00
2022-09-07T01:09:33.312Z,97934.28
2022-09-07T01:12:02.270Z,97948.16
2022-09-07T01:14:37.625Z,97941.84
2022-09-07T01:17:36.883Z,97949.06
2022-09-07T01:20:50.427Z,97947.09
2022-09-07T01:23:46.010Z,97941.72
2022-09-07T01:26:18.906Z,97937.31
2022-09-07T01:28:50.065Z,97937.31
2022-09-07T01:31:50.791Z,97940.66
2022-09-07T01:34:23.964Z,97945.03
2022-09-07T01:37:18.375Z,97955.59
2022-09-07T01:40:32.929Z,97960.88
2022-09-07T01:43:09.332Z,97966.25
2022-09-07T01:45:40.470Z,97964.09
2022-09-07T01:48:11.216Z,97977.00
2022-09-07T01:50:49.978Z,97979.41
2022-09-07T01:53:26.063Z,97978.81
2022-09-07T01:56:06.585Z,97974.97
2022-09-07T01:58:45.102Z,97977.72
2022-09-07T02:01:55.803Z,97975.13
2022-09-07T02:04:31.766Z,97973.88
2022-09-07T02:07:13.064Z,97976.09
2022-09-07T02:09:58.198Z,97979.69
2022-09-07T02:12:42.379Z,97983.19
2022-09-07T02:15:28.493Z,97989.81
2022-09-07T02:18:02.551Z,97991.97
2022-09-07T02:20:34.396Z,97989.97
2022-09-07T02:23:07.196Z,98002.34
2022-09-07T02:25:44.989Z,97997.16
2022-09-07T02:28:17.087Z,97993.41
2022-09-07T02:30:44.555Z,97994.22
2022-09-07T02:33:11.861Z,97997.72
2022-09-07T02:35:38.918Z,97995.44
2022-09-07T02:38:08.018Z,97995.03
2022-09-07T02:40:35.501Z,97999.44
2022-09-07T02:43:08.912Z,97990.47
2022-09-07T02:46:10.063Z,97994.97
2022-09-07T02:49:07.938Z,98001.34
2022-09-07T02:52:06.528Z,98008.16
2022-09-07T02:55:11.056Z,98000.56
2022-09-07T02:57:51.099Z,98008.06
2022-09-07T03:00:26.426Z,98013.19
2022-09-07T03:03:17.446Z,98029.16
2022-09-07T03:05:50.842Z,98031.59
2022-09-07T03:08:34.790Z,98018.66
2022-09-07T03:11:04.494Z,98026.47
2022-09-07T03:13:32.032Z,98019.88
2022-09-07T03:15:59.549Z,98036.47
2022-09-07T03:18:28.406Z,98043.25
2022-09-07T03:20:56.487Z,98037.00
2022-09-07T03:23:23.760Z,98035.75
2022-09-07T03:25:51.060Z,98024.63
2022-09-07T03:28:18.522Z,98040.13
2022-09-07T03:30:47.463Z,98033.59
2022-09-07T03:33:16.009Z,98035.94
2022-09-07T03:35:57.594Z,98036.78
2022-09-07T03:38:24.649Z,98036.28
2022-09-07T03:41:00.263Z,98039.38
2022-09-07T03:43:28.267Z,98041.13
2022-09-07T03:46:03.950Z,98034.84
2022-09-07T03:48:33.386Z,98036.16
2022-09-07T03:51:07.553Z,98036.09
2022-09-07T03:53:38.405Z,98034.97
2022-09-07T03:56:12.666Z,98037.25
2022-09-07T03:58:40.216Z,98045.78
2022-09-07T04:01:15.904Z,98045.78
2022-09-07T04:03:44.385Z,98044.66
2022-09-07T04:06:12.954Z,98040.59
2022-09-07T04:08:41.589Z,98029.03
2022-09-07T04:11:13.011Z,98026.53
2022-09-07T04:13:40.380Z,98029.13
2022-09-07T04:16:18.157Z,98033.97
2022-09-07T04:18:46.016Z,98034.84
2022-09-07T04:21:13.737Z,98038.19
2022-09-07T04:23:43.508Z,98037.56
2022-09-07T04:26:24.991Z,98035.22
2022-09-07T04:28:53.136Z,98041.28
2022-09-07T04:31:20.722Z,98048.09
2022-09-07T04:33:49.701Z,98041.16
2022-09-07T04:36:19.137Z,98046.66
2022-09-07T04:38:46.445Z,98049.97
2022-09-07T04:41:17.279Z,98053.94
2022-09-07T04:43:46.114Z,98061.53
2022-09-07T04:46:21.954Z,98050.53
2022-09-07T04:48:57.346Z,98052.97
2022-09-07T04:51:28.656Z,98056.31
2022-09-07T04:53:57.474Z,98051.50
2022-09-07T04:56:24.839Z,98049.72
2022-09-07T04:58:52.347Z,98046.78
2022-09-07T05:01:22.972Z,98048.72
2022-09-07T05:03:50.740Z,98042.75
2022-09-07T05:06:20.805Z,98044.06
2022-09-07T05:08:51.841Z,98041.28
2022-09-07T05:11:22.871Z,98030.19
2022-09-07T05:13:55.750Z,98040.34
2022-09-07T05:16:24.576Z,98044.91
2022-09-07T05:18:54.529Z,98041.59
2022-09-07T05:21:25.312Z,98042.88
2022-09-07T05:23:55.454Z,98040.28
2022-09-07T05:26:25.077Z,98047.81
2022-09-07T05:28:52.484Z,98049.88
2022-09-07T05:31:22.009Z,98043.44
2022-09-07T05:36:41.873Z,98048.63
2022-09-07T05:39:09.229Z,98050.81
2022-09-07T05:41:36.292Z,98043.38
2022-09-07T05:46:53.158Z,98048.97
2022-09-07T05:49:20.245Z,98054.31
2022-09-07T05:51:48.356Z,98057.66
2022-09-07T05:54:15.435Z,98059.19
2022-09-07T05:56:43.169Z,98064.50
2022-09-07T05:59:10.285Z,98061.16
2022-09-07T06:01:37.402Z,98072.88
2022-09-07T06:04:05.654Z,98078.47
2022-09-07T06:06:32.863Z,98086.66
2022-09-07T06:08:59.931Z,98078.53
2022-09-07T06:11:27.406Z,98080.59
2022-09-07T06:13:54.713Z,98084.84
2022-09-07T06:16:21.960Z,98083.28
2022-09-07T06:18:50.181Z,98082.19
2022-09-07T06:21:23.353Z,98076.03
2022-09-07T06:23:52.023Z,98082.63
2022-09-07T06:26:19.830Z,98086.34
2022-09-07T06:28:50.169Z,98083.91
2022-09-07T06:31:23.382Z,98096.91
2022-09-07T06:33:51.957Z,98091.13
2022-09-07T06:36:25.368Z,98088.75
2022-09-07T06:38:52.653Z,98085.84
2022-09-07T06:44:18.630Z,98089.94
2022-09-07T06:49:32.815Z,98084.38
2022-09-07T06:52:00.178Z,98089.06
2022-09-07T06:57:14.376Z,98077.69
2022-09-07T06:59:41.451Z,98079.50
2022-09-07T07:02:11.792Z,98081.69
2022-09-07T07:04:41.102Z,98070.31
2022-09-07T07:07:13.959Z,98063.84
2022-09-07T07:09:41.881Z,98064.56
2022-09-07T07:12:10.834Z,98050.97
2022-09-07T07:14:41.047Z,98042.91
2022-09-07T07:17:09.963Z,98057.66
2022-09-07T07:19:37.056Z,98061.72
2022-09-07T07:22:35.616Z,98063.38
2022-09-07T07:24:51.119Z,98069.91
2022-09-07T07:27:18.202Z,98066.97
2022-09-07T07:29:46.078Z,98064.97
2022-09-07T07:32:13.150Z,98071.69
2022-09-07T07:34:40.098Z,98074.25
2022-09-07T07:37:07.156Z,98073.50
2022-09-07T07:42:21.879Z,98072.25
2022-09-07T07:44:48.905Z,98079.59
2022-09-07T07:47:15.964Z,98086.72
2022-09-07T07:49:43.414Z,98089.66
2022-09-07T07:54:57.523Z,98092.50
2022-09-07T07:57:24.556Z,98104.69
2022-09-07T07:59:51.522Z,98102.06
2022-09-07T08:02:18.509Z,98104.84
2022-09-07T08:04:45.582Z,98101.00
2022-09-07T08:07:12.785Z,98108.09
2022-09-07T08:09:41.974Z,98100.41
2022-09-07T08:12:19.116Z,98104.94
2022-09-07T08:14:48.582Z,98112.72
2022-09-07T08:17:17.458Z,98119.97
2022-09-07T08:19:45.149Z,98121.06
2022-09-07T08:22:12.395Z,98118.84
2022-09-07T08:24:40.041Z,98134.03
2022-09-07T08:27:07.202Z,98129.81
2022-09-07T08:29:35.488Z,98126.25
2022-09-07T08:32:05.268Z,98124.88
2022-09-07T08:34:34.827Z,98132.78
2022-09-07T08:37:01.763Z,98131.25
2022-09-07T08:39:28.924Z,98132.59
2022-09-07T08:42:33.496Z,98135.13
2022-09-07T08:45:17.807Z,98143.06
2022-09-07T08:47:50.440Z,98134.63
2022-09-07T08:50:39.518Z,98142.66
2022-09-07T08:53:17.843Z,98134.31
2022-09-07T08:56:10.179Z,98138.47
2022-09-07T08:58:55.313Z,98143.38
2022-09-07T09:01:33.718Z,98137.38
2022-09-07T09:04:17.984Z,98130.22
2022-09-07T09:07:04.157Z,98121.28
2022-09-07T09:10:12.760Z,98125.91
2022-09-07T09:13:17.264Z,98119.16
2022-09-07T09:15:55.893Z,98125.78
2022-09-07T09:18:54.542Z,98120.09
2022-09-07T09:21:21.508Z,98126.47
2022-09-07T09:23:53.629Z,98124.69
2022-09-07T09:26:32.749Z,98110.78
2022-09-07T09:29:18.249Z,98110.59
2022-09-07T09:31:45.391Z,98109.06
2022-09-07T09:34:17.704Z,98097.97
2022-09-07T09:36:53.775Z,98096.69
2022-09-07T09:39:37.573Z,98097.31
2022-09-07T09:42:07.628Z,98095.53
2022-09-07T09:44:38.209Z,98094.53
2022-09-07T09:49:54.063Z,98096.38
2022-09-07T09:52:28.939Z,98096.97
2022-09-07T09:55:03.301Z,98086.56
2022-09-07T10:01:22.979Z,98081.56
2022-09-07T10:06:20.771Z,98081.09
2022-09-07T10:08:57.798Z,98090.75
2022-09-07T10:14:47.214Z,98086.59
2022-09-07T10:17:42.865Z,98072.09
2022-09-07T10:20:15.848Z,98066.50
2022-09-07T10:22:58.153Z,98068.69
2022-09-07T10:25:40.848Z,98063.81
2022-09-07T10:28:14.102Z,98065.00
2022-09-07T10:30:53.099Z,98057.47
2022-09-07T10:37:05.929Z,98046.16
2022-09-07T10:39:42.062Z,98055.88
2022-09-07T10:42:30.952Z,98060.53
2022-09-07T10:45:19.546Z,98053.16
2022-09-07T10:48:21.007Z,98040.66
2022-09-07T10:50:56.893Z,98045.63
2022-09-07T10:57:48.750Z,98027.38
2022-09-07T11:00:21.932Z,98019.16
2022-09-07T11:03:25.317Z,98016.41
2022-09-07T11:06:14.335Z,98010.91
2022-09-07T11:14:42.090Z,98000.16
2022-09-07T11:17:30.543Z,98001.88
2022-09-07T11:20:22.352Z,98005.53
2022-09-07T11:23:04.288Z,97992.50
2022-09-07T11:25:42.300Z,97990.66
2022-09-07T11:28:16.626Z,97991.38
2022-09-07T11:30:53.114Z,97995.31
2022-09-07T11:33:29.436Z,97969.00
2022-09-07T11:36:18.441Z,97983.09
2022-09-07T11:39:01.165Z,97989.03
2022-09-07T11:41:31.791Z,97985.09
2022-09-07T11:44:06.269Z,97986.25
2022-09-07T11:46:40.018Z,97975.72
2022-09-07T11:49:22.741Z,97978.53
2022-09-07T11:52:30.821Z,97984.41
2022-09-07T11:55:05.790Z,97981.19
2022-09-07T11:58:16.191Z,97985.22
2022-09-07T12:01:17.847Z,97978.50
2022-09-07T12:04:25.020Z,97980.38
2022-09-07T12:07:51.647Z,97994.47
2022-09-07T12:10:52.144Z,97987.44
2022-09-07T12:13:53.163Z,97974.34
2022-09-07T12:17:11.978Z,97957.72
2022-09-07T12:19:38.928Z,97957.38
2022-09-07T12:22:21.991Z,97957.88
2022-09-07T12:24:54.088Z,97963.47
2022-09-07T12:27:20.906Z,97948.56
2022-09-07T12:29:57.524Z,97964.78
2022-09-07T12:32:54.546Z,97959.19
2022-09-07T12:35:28.617Z,97965.84
2022-09-07T12:38:06.045Z,97961.22
2022-09-07T12:40:35.705Z,97968.97
2022-09-07T12:43:14.854Z,97961.19
2022-09-07T12:45:42.255Z,97950.91
2022-09-07T12:48:15.379Z,97944.28
2022-09-07T12:51:07.477Z,97936.06
2022-09-07T12:53:43.549Z,97954.47
2022-09-07T12:56:41.250Z,97960.09
2022-09-07T12:59:31.699Z,97941.91
2022-09-07T13:02:32.096Z,97929.66
2022-09-07T13:05:09.121Z,97930.06
2022-09-07T13:07:48.351Z,97915.78
2022-09-07T13:10:32.332Z,97914.38
2022-09-07T13:16:14.827Z,97920.78
2022-09-07T13:18:43.909Z,97908.03
2022-09-07T13:21:11.904Z,97904.75
2022-09-07T13:23:40.158Z,97905.44
2022-09-07T13:26:11.839Z,97909.97
2022-09-07T13:29:03.533Z,97911.47
2022-09-07T13:31:48.927Z,97910.81
2022-09-07T13:34:34.308Z,97901.06
2022-09-07T13:37:06.504Z,97898.16
2022-09-07T13:39:44.641Z,97891.75
2022-09-07T13:42:23.937Z,97894.72
2022-09-07T13:44:58.345Z,97889.59
2022-09-07T13:47:46.914Z,97891.50
2022-09-07T13:50:35.912Z,97888.03
2022-09-07T13:53:33.873Z,97877.88
2022-09-07T13:58:52.924Z,97869.19
2022-09-07T14:01:25.871Z,97873.25
2022-09-07T14:04:07.647Z,97881.50
2022-09-07T14:06:37.996Z,97871.03
2022-09-07T14:09:18.557Z,97856.41
2022-09-07T14:11:56.619Z,97864.13
2022-09-07T14:14:30.173Z,97857.97
2022-09-07T14:17:00.136Z,97861.47
2022-09-07T14:19:51.424Z,97867.28
2022-09-07T14:22:21.907Z,97860.00
2022-09-07T14:25:01.321Z,97858.91
2022-09-07T14:27:40.898Z,97858.13
2022-09-07T14:30:23.353Z,97858.00
2022-09-07T14:32:57.037Z,97862.06
2022-09-07T14:35:33.518Z,97858.22
2022-09-07T14:41:15.122Z,97852.16
2022-09-07T14:43:57.532Z,97848.16
2022-09-07T14:46:29.234Z,97848.16
2022-09-07T14:48:59.066Z,97844.69
2022-09-07T14:51:35.007Z,97836.00
2022-09-07T14:54:08.306Z,97838.63
2022-09-07T14:56:40.292Z,97836.19
2022-09-07T14:59:47.143Z,97840.13
2022-09-07T15:02:23.994Z,97837.50
2022-09-07T15:05:27.156Z,97838.00
2022-09-07T15:08:02.735Z,97831.06
2022-09-07T15:10:40.019Z,97825.97
2022-09-07T15:13:25.950Z,97825.38
2022-09-07T15:16:03.349Z,97838.66
2022-09-07T15:18:56.413Z,97830.81
2022-09-07T15:21:36.583Z,97821.84
2022-09-07T15:24:04.490Z,97827.56
2022-09-07T15:29:32.982Z,97818.22
2022-09-07T15:32:04.266Z,97823.13
2022-09-07T15:34:32.327Z,97813.97
2022-09-07T15:37:00.289Z,97817.00
2022-09-07T15:39:30.154Z,97810.66
2022-09-07T15:41:58.211Z,97814.63
2022-09-07T15:44:28.511Z,97815.00
2022-09-07T15:49:50.030Z,97812.44
2022-09-07T15:52:17.973Z,97811.28
2022-09-07T15:54:45.066Z,97809.81
2022-09-07T15:59:59.163Z,97800.88
2022-09-07T16:05:13.750Z,97802.56
2022-09-07T16:10:31.142Z,97812.63
2022-09-07T16:13:01.175Z,97804.41
2022-09-07T16:15:29.166Z,97809.34
2022-09-07T16:17:56.196Z,97800.69
2022-09-07T16:20:23.196Z,97804.41
2022-09-07T16:25:38.361Z,97797.72
2022-09-07T16:28:06.350Z,97789.38
2022-09-07T16:30:33.709Z,97786.53
2022-09-07T16:33:00.717Z,97784.47
2022-09-07T16:35:28.311Z,97788.59
2022-09-07T16:40:43.826Z,97788.94
2022-09-07T16:43:10.902Z,97789.22
2022-09-07T16:48:24.878Z,97780.16
2022-09-07T16:51:00.380Z,97774.69
2022-09-07T16:53:31.464Z,97782.88
2022-09-07T16:56:14.900Z,97783.53
2022-09-07T16:58:51.214Z,97779.56
2022-09-07T17:01:29.298Z,97779.25
2022-09-07T17:03:57.042Z,97786.59
2022-09-07T17:06:27.679Z,97787.00
2022-09-07T17:08:55.040Z,97793.03
2022-09-07T17:11:34.370Z,97784.38
2022-09-07T17:14:01.642Z,97782.75
2022-09-07T17:16:35.279Z,97773.22
2022-09-07T17:21:57.607Z,97778.69
2022-09-07T17:24:25.081Z,97781.53
2022-09-07T17:26:52.146Z,97781.06
2022-09-07T17:29:19.442Z,97780.22
2022-09-07T17:34:33.388Z,97778.06
2022-09-07T17:37:01.134Z,97783.53
2022-09-07T17:39:29.521Z,97786.22
2022-09-07T17:41:56.798Z,97784.34
2022-09-07T17:44:23.797Z,97787.19
2022-09-07T17:46:51.368Z,97785.81
2022-09-07T17:49:18.560Z,97783.09
2022-09-07T17:51:46.177Z,97793.25
2022-09-07T17:54:15.819Z,97797.66
2022-09-07T17:56:43.086Z,97799.03
2022-09-07T18:01:58.283Z,97801.88
2022-09-07T18:04:26.168Z,97810.63
2022-09-07T18:06:54.527Z,97811.72
2022-09-07T18:09:21.922Z,97816.97
2022-09-07T18:11:50.184Z,97823.97
2022-09-07T18:14:18.665Z,97818.94
2022-09-07T18:16:48.831Z,97822.19
2022-09-07T18:19:16.919Z,97830.47
2022-09-07T18:21:46.105Z,97848.06
2022-09-07T18:24:18.725Z,97831.28
2022-09-07T18:26:52.112Z,97835.72
2022-09-07T18:29:33.184Z,97829.19
2022-09-07T18:32:04.747Z,97833.72
2022-09-07T18:34:34.557Z,97841.72
2022-09-07T18:37:02.392Z,97839.72
2022-09-07T18:39:29.670Z,97843.41
2022-09-07T18:41:57.245Z,97851.69
2022-09-07T18:47:22.349Z,97841.69
2022-09-07T18:49:54.892Z,97835.00
2022-09-07T18:55:10.029Z,97797.19
2022-09-07T18:57:37.503Z,97783.06
2022-09-07T19:00:07.905Z,97777.66
2022-09-07T19:02:35.769Z,97769.97
2022-09-07T19:07:50.241Z,97779.13
2022-09-07T19:10:17.785Z,97797.88
2022-09-07T19:12:46.219Z,97813.84
2022-09-07T19:15:14.173Z,97816.03
2022-09-07T19:17:41.086Z,97828.38
2022-09-07T19:20:08.951Z,97831.25
2022-09-07T19:22:35.914Z,97833.38
2022-09-07T19:25:02.859Z,97822.16
2022-09-07T19:27:32.822Z,97829.19
2022-09-07T19:29:59.857Z,97835.31
2022-09-07T19:32:26.859Z,97843.50
2022-09-07T19:34:54.702Z,97841.09
2022-09-07T19:37:25.381Z,97842.97
2022-09-07T19:39:55.202Z,97820.59
2022-09-07T19:42:23.753Z,97825.03
2022-09-07T19:44:51.465Z,97823.75
2022-09-07T19:47:18.899Z,97827.31
2022-09-07T19:49:45.936Z,97817.31
2022-09-07T19:52:13.046Z,97828.38
2022-09-07T19:54:40.420Z,97828.09
2022-09-07T19:57:07.465Z,97838.72
2022-09-07T19:59:34.438Z,97836.03
2022-09-07T20:02:01.880Z,97841.13
2022-09-07T20:04:29.109Z,97828.88
2022-09-07T20:06:56.522Z,97820.19
2022-09-07T20:09:23.469Z,97809.84
2022-09-07T20:11:50.746Z,97800.03
2022-09-07T20:14:19.172Z,97788.94
2022-09-07T20:16:46.403Z,97786.69
2022-09-07T20:19:17.372Z,97783.38
2022-09-07T20:21:44.378Z,97782.22
2022-09-07T20:24:12.530Z,97770.34
2022-09-07T20:26:39.731Z,97760.69
2022-09-07T20:31:55.566Z,97755.50
2022-09-07T20:34:22.960Z,97747.91
2022-09-07T20:36:50.881Z,97748.19
2022-09-07T20:39:18.200Z,97740.25
2022-09-07T20:41:45.384Z,97747.56
2022-09-07T20:44:12.742Z,97739.13
2022-09-07T20:46:39.864Z,97727.34
2022-09-07T20:49:07.242Z,97719.00
2022-09-07T20:51:34.324Z,97719.25
2022-09-07T20:54:01.417Z,97719.66
2022-09-07T20:56:29.402Z,97721.09
2022-09-07T20:59:02.037Z,97727.63
2022-09-07T21:01:31.490Z,97727.09
2022-09-07T21:04:00.537Z,97733.44
2022-09-07T21:06:28.987Z,97737.19
2022-09-07T21:08:59.640Z,97741.13
2022-09-07T21:11:33.558Z,97731.88
2022-09-07T21:14:07.325Z,97744.44
2022-09-07T21:16:36.099Z,97746.53
2022-09-07T21:19:06.864Z,97746.53
2022-09-07T21:21:41.055Z,97740.13
2022-09-07T21:24:20.538Z,97752.66
2022-09-07T21:26:48.731Z,97745.66
2022-09-07T21:29:23.330Z,97752.34
2022-09-07T21:31:52.720Z,97750.03
2022-09-07T21:34:19.800Z,97751.53
2022-09-07T21:36:46.778Z,97747.28
2022-09-07T21:39:15.145Z,97757.06
2022-09-07T21:41:43.711Z,97761.88
2022-09-07T21:44:16.481Z,97766.84
2022-09-07T21:46:44.341Z,97771.25
2022-09-07T21:49:11.762Z,97775.06
2022-09-07T21:51:39.034Z,97767.81
2022-09-07T21:54:06.079Z,97763.38
2022-09-07T21:56:33.249Z,97764.03
2022-09-07T21:59:02.014Z,97767.34
2022-09-07T22:01:30.638Z,97765.16
2022-09-07T22:04:03.776Z,97758.84
2022-09-07T22:06:34.903Z,97765.41
2022-09-07T22:09:03.647Z,97759.34
2022-09-07T22:11:31.437Z,97752.84
2022-09-07T22:14:02.663Z,97748.88
2022-09-07T22:16:31.083Z,97742.06
2022-09-07T22:18:58.524Z,97738.00
2022-09-07T22:21:30.201Z,97735.03
2022-09-07T22:24:04.376Z,97737.00
2022-09-07T22:26:37.595Z,97734.25
2022-09-07T22:29:07.019Z,97730.25
2022-09-07T22:31:37.068Z,97733.75
2022-09-07T22:34:10.247Z,97722.59
2022-09-07T22:36:43.400Z,97722.72
2022-09-07T22:39:19.202Z,97715.25
2022-09-07T22:41:47.615Z,97719.41
2022-09-07T22:44:18.655Z,97719.44
2022-09-07T22:46:47.168Z,97716.06
2022-09-07T22:49:16.328Z,97701.16
2022-09-07T22:51:43.926Z,97689.81
2022-09-07T22:54:11.034Z,97684.38
2022-09-07T22:56:38.386Z,97673.16
2022-09-07T22:59:08.010Z,97662.66
2022-09-07T23:01:36.182Z,97647.31
2022-09-07T23:04:04.575Z,97643.22
2022-09-07T23:06:43.141Z,97635.97
2022-09-07T23:09:14.805Z,97635.47
2022-09-07T23:11:42.773Z,97629.31
2022-09-07T23:14:27.959Z,97620.59
2022-09-07T23:16:54.916Z,97631.47
2022-09-07T23:19:22.011Z,97620.94
2022-09-07T23:21:49.275Z,97618.28
2022-09-07T23:24:18.286Z,97622.31
2022-09-07T23:26:46.761Z,97627.47
2022-09-07T23:29:15.012Z,97623.28
2022-09-07T23:31:42.838Z,97626.19
2022-09-07T23:34:09.932Z,97637.97
2022-09-07T23:36:37.322Z,97636.72
2022-09-07T23:39:04.385Z,97656.97
2022-09-07T23:41:31.725Z,97661.44
2022-09-07T23:43:59.203Z,97657.28
2022-09-07T23:46:26.284Z,97647.06
2022-09-07T23:48:53.347Z,97639.06
2022-09-07T23:51:24.249Z,97628.38
2022-09-07T23:53:52.326Z,97641.09
2022-09-07T23:56:20.073Z,97635.03
2022-09-07T23:58:47.025Z,97637.53
